createdAt,value
2017-09-03T00:01:31.938Z,4.13
2017-09-03T00:04:33.253Z,4.40
2017-09-03T00:07:34.588Z,3.97
2017-09-03T00:10:35.893Z,3.53
2017-09-03T00:13:37.258Z,3.60
2017-09-03T00:16:38.614Z,4.20
2017-09-03T00:19:39.996Z,4.00
2017-09-03T00:22:41.364Z,3.90
2017-09-03T00:25:42.778Z,3.83
2017-09-03T00:28:44.121Z,3.93
2017-09-03T00:31:45.943Z,4.83
2017-09-03T00:34:47.338Z,5.33
2017-09-03T00:37:48.772Z,3.80
2017-09-03T00:40:50.102Z,3.77
2017-09-03T00:43:51.492Z,4.47
2017-09-03T00:46:52.791Z,4.43
2017-09-03T00:49:54.198Z,4.03
2017-09-03T00:52:55.556Z,4.47
2017-09-03T00:55:56.892Z,4.00
2017-09-03T00:58:58.257Z,4.37
2017-09-03T01:01:59.560Z,4.53
2017-09-03T01:05:00.905Z,5.27
2017-09-03T01:08:02.254Z,5.00
2017-09-03T01:11:03.618Z,4.40
2017-09-03T01:14:05.125Z,4.77
2017-09-03T01:17:06.460Z,5.47
2017-09-03T01:20:07.798Z,5.10
2017-09-03T01:23:09.429Z,4.63
2017-09-03T01:26:10.758Z,4.70
2017-09-03T01:29:12.106Z,5.33
2017-09-03T01:32:13.457Z,4.97
2017-09-03T01:35:14.807Z,6.13
2017-09-03T01:38:16.097Z,4.67
2017-09-03T01:41:17.434Z,6.10
2017-09-03T01:44:18.737Z,5.03
2017-09-03T01:47:20.120Z,5.23
2017-09-03T01:50:21.440Z,5.00
2017-09-03T01:53:22.744Z,5.17
2017-09-03T01:56:24.070Z,5.00
2017-09-03T01:59:25.377Z,5.20
2017-09-03T02:02:26.689Z,5.20
2017-09-03T02:05:28.013Z,5.07
2017-09-03T02:08:29.304Z,5.30
2017-09-03T02:11:30.636Z,4.73
2017-09-03T02:14:31.933Z,4.97
2017-09-03T02:17:33.281Z,5.23
2017-09-03T02:20:34.625Z,4.40
2017-09-03T02:23:35.942Z,4.90
2017-09-03T02:26:37.252Z,6.47
2017-09-03T02:29:38.590Z,5.30
2017-09-03T02:32:40.292Z,5.33
2017-09-03T02:35:41.590Z,5.27
2017-09-03T02:38:42.917Z,5.10
2017-09-03T02:41:44.213Z,5.67
2017-09-03T02:44:45.530Z,5.70
2017-09-03T02:47:46.801Z,5.80
2017-09-03T02:50:48.181Z,5.77
2017-09-03T02:53:49.532Z,6.63
2017-09-03T02:56:50.886Z,6.40
2017-09-03T02:59:52.648Z,6.47
2017-09-03T03:02:53.968Z,7.20
2017-09-03T03:05:55.309Z,7.03
2017-09-03T03:08:56.628Z,6.40
2017-09-03T03:11:57.989Z,6.73
2017-09-03T03:14:59.300Z,7.50
2017-09-03T03:18:00.753Z,6.90
2017-09-03T03:21:02.041Z,8.80
2017-09-03T03:24:03.421Z,7.80
2017-09-03T03:27:04.749Z,8.00
2017-09-03T03:30:06.042Z,8.27
2017-09-03T03:33:07.377Z,7.50
2017-09-03T03:36:08.689Z,8.57
2017-09-03T03:39:10.047Z,8.67
2017-09-03T03:42:11.373Z,7.70
2017-09-03T03:45:12.661Z,8.67
2017-09-03T03:48:14.028Z,9.00
2017-09-03T03:51:15.332Z,10.37
2017-09-03T03:54:16.842Z,8.03
2017-09-03T03:57:18.168Z,9.77
2017-09-03T04:00:19.492Z,9.37
2017-09-03T04:03:20.856Z,7.30
2017-09-03T04:06:22.182Z,9.07
2017-09-03T04:09:23.537Z,9.97
2017-09-03T04:12:24.861Z,7.17
2017-09-03T04:15:26.172Z,8.43
2017-09-03T04:18:27.536Z,8.30
2017-09-03T04:21:28.836Z,8.50
2017-09-03T04:24:30.185Z,8.20
2017-09-03T04:27:31.636Z,7.57
2017-09-03T04:30:32.977Z,7.90
2017-09-03T04:33:34.310Z,7.60
2017-09-03T04:36:35.610Z,7.23
2017-09-03T04:39:36.925Z,6.83
2017-09-03T04:42:38.205Z,7.77
2017-09-03T04:45:39.557Z,7.10
2017-09-03T04:48:40.890Z,7.90
2017-09-03T04:51:42.189Z,6.83
2017-09-03T04:54:43.537Z,7.37
2017-09-03T04:57:44.849Z,7.00
2017-09-03T05:00:46.181Z,8.10
2017-09-03T05:03:47.496Z,8.00
2017-09-03T05:06:48.824Z,7.40
2017-09-03T05:09:50.149Z,7.67
2017-09-03T05:12:51.449Z,7.23
2017-09-03T05:15:52.769Z,8.00
2017-09-03T05:18:54.116Z,7.90
2017-09-03T05:21:55.669Z,7.43
2017-09-03T05:24:57.020Z,8.43
2017-09-03T05:27:58.321Z,7.30
2017-09-03T05:30:59.675Z,8.07
2017-09-03T05:34:00.989Z,8.40
2017-09-03T05:37:02.363Z,7.50
2017-09-03T05:40:03.797Z,8.00
2017-09-03T05:43:05.109Z,7.20
2017-09-03T05:46:06.442Z,7.63
2017-09-03T05:49:07.742Z,8.20
2017-09-03T05:52:09.065Z,7.70
2017-09-03T05:55:10.350Z,7.70
2017-09-03T05:58:11.685Z,7.80
2017-09-03T06:01:13.072Z,8.00
2017-09-03T06:04:14.355Z,8.10
2017-09-03T06:07:15.713Z,8.90
2017-09-03T06:10:17.032Z,9.47
2017-09-03T06:13:18.380Z,9.80
2017-09-03T06:16:19.692Z,8.27
2017-09-03T06:19:21.079Z,8.40
2017-09-03T06:22:22.424Z,9.80
2017-09-03T06:25:23.768Z,10.00
2017-09-03T06:28:25.212Z,10.07
2017-09-03T06:31:26.506Z,10.40
2017-09-03T06:34:27.829Z,10.13
2017-09-03T06:37:29.165Z,9.53
2017-09-03T06:40:30.524Z,8.47
2017-09-03T06:43:31.816Z,8.80
2017-09-03T06:46:33.149Z,10.33
2017-09-03T06:49:34.485Z,9.77
2017-09-03T06:52:35.780Z,10.20
2017-09-03T06:55:37.137Z,10.70
2017-09-03T06:58:38.462Z,11.67
2017-09-03T07:01:39.817Z,11.23
2017-09-03T07:04:41.158Z,10.27
2017-09-03T07:07:42.480Z,8.93
2017-09-03T07:10:43.777Z,9.50
2017-09-03T07:13:45.105Z,10.23
2017-09-03T07:16:46.441Z,11.77
2017-09-03T07:19:48.564Z,10.83
2017-09-03T07:22:49.934Z,10.53
2017-09-03T07:25:51.281Z,10.40
2017-09-03T07:28:52.567Z,10.90
2017-09-03T07:31:53.874Z,11.57
2017-09-03T07:34:55.193Z,11.10
2017-09-03T07:37:56.489Z,11.90
2017-09-03T07:40:57.848Z,11.63
2017-09-03T07:43:59.209Z,12.23
2017-09-03T07:47:00.552Z,11.03
2017-09-03T07:50:01.914Z,12.23
2017-09-03T07:53:03.253Z,12.93
2017-09-03T07:56:04.600Z,12.40
2017-09-03T07:59:05.876Z,10.70
2017-09-03T08:02:07.209Z,12.40
2017-09-03T08:05:08.810Z,13.23
2017-09-03T08:08:10.133Z,12.80
2017-09-03T08:11:11.454Z,13.97
2017-09-03T08:14:12.763Z,14.50
2017-09-03T08:17:14.077Z,13.87
2017-09-03T08:20:15.403Z,14.67
2017-09-03T08:23:16.734Z,15.27
2017-09-03T08:26:18.085Z,13.00
2017-09-03T08:29:19.424Z,14.43
2017-09-03T08:32:20.750Z,14.30
2017-09-03T08:35:22.062Z,15.63
2017-09-03T08:38:23.420Z,14.30
2017-09-03T08:41:24.697Z,15.47
2017-09-03T08:44:26.034Z,16.37
2017-09-03T08:47:27.363Z,16.07
2017-09-03T08:50:28.657Z,14.90
2017-09-03T08:53:30.005Z,12.90
2017-09-03T08:56:31.329Z,16.03
2017-09-03T08:59:32.676Z,17.50
2017-09-03T09:02:34.015Z,14.90
2017-09-03T09:05:35.324Z,15.13
2017-09-03T09:08:36.645Z,13.33
2017-09-03T09:11:37.957Z,15.03
2017-09-03T09:14:39.286Z,14.40
2017-09-03T09:17:40.625Z,12.77
2017-09-03T09:20:41.990Z,13.97
2017-09-03T09:23:43.364Z,13.30
2017-09-03T09:26:44.665Z,11.97
2017-09-03T09:29:46.049Z,12.53
2017-09-03T09:32:47.401Z,12.27
2017-09-03T09:35:48.724Z,10.40
2017-09-03T09:38:50.079Z,10.87
2017-09-03T09:41:51.373Z,10.57
2017-09-03T09:44:52.710Z,10.20
2017-09-03T09:47:54.063Z,11.17
2017-09-03T09:50:55.436Z,10.40
2017-09-03T09:53:56.797Z,11.93
2017-09-03T09:56:58.132Z,8.87
2017-09-03T09:59:59.479Z,10.60
2017-09-03T10:03:00.773Z,8.60
2017-09-03T10:06:02.110Z,9.00
2017-09-03T10:09:03.464Z,9.50
2017-09-03T10:12:04.785Z,10.60
2017-09-03T10:15:06.112Z,11.60
2017-09-03T10:18:07.434Z,8.80
2017-09-03T10:21:08.802Z,10.20
2017-09-03T10:24:10.144Z,10.47
2017-09-03T10:27:11.490Z,10.90
2017-09-03T10:30:12.817Z,10.43
2017-09-03T10:33:14.181Z,10.77
2017-09-03T10:36:15.497Z,8.80
2017-09-03T10:39:16.821Z,7.80
2017-09-03T10:42:18.145Z,9.00
2017-09-03T10:45:19.461Z,8.20
2017-09-03T10:48:20.785Z,8.40
2017-09-03T10:51:22.137Z,8.83
2017-09-03T10:54:23.497Z,9.10
2017-09-03T10:57:25.129Z,7.00
2017-09-03T11:00:26.444Z,9.10
2017-09-03T11:03:28.518Z,8.90
2017-09-03T11:06:29.834Z,8.80
2017-09-03T11:09:31.177Z,6.90
2017-09-03T11:12:32.462Z,7.30
2017-09-03T11:15:33.820Z,6.57
2017-09-03T11:18:35.424Z,5.57
2017-09-03T11:21:36.746Z,6.17
2017-09-03T11:24:38.177Z,5.20
2017-09-03T11:27:40.257Z,5.10
2017-09-03T11:30:41.591Z,3.87
2017-09-03T11:33:42.949Z,4.10
2017-09-03T11:36:44.311Z,3.80
2017-09-03T11:39:45.635Z,4.37
2017-09-03T11:42:47.002Z,3.73
2017-09-03T11:45:48.613Z,3.37
2017-09-03T11:48:49.984Z,3.93
2017-09-03T11:51:51.362Z,3.90
2017-09-03T11:54:52.736Z,3.23
2017-09-03T11:57:54.120Z,3.40
2017-09-03T12:00:55.457Z,3.10
2017-09-03T12:03:56.830Z,2.40
2017-09-03T12:06:58.165Z,4.27
2017-09-03T12:09:59.503Z,4.20
2017-09-03T12:13:00.869Z,4.70
2017-09-03T12:16:02.229Z,3.40
2017-09-03T12:19:03.650Z,4.10
2017-09-03T12:22:04.962Z,3.20
2017-09-03T12:25:06.306Z,3.53
2017-09-03T12:28:08.017Z,4.63
2017-09-03T12:31:09.375Z,3.30
2017-09-03T12:34:10.772Z,3.57
2017-09-03T12:37:12.125Z,3.60
2017-09-03T12:40:13.509Z,4.53
2017-09-03T12:43:14.855Z,3.77
2017-09-03T12:46:16.204Z,4.20
2017-09-03T12:49:17.649Z,4.70
2017-09-03T12:52:18.984Z,3.53
2017-09-03T12:55:20.724Z,5.20
2017-09-03T12:58:22.010Z,4.00
2017-09-03T13:01:23.458Z,4.20
2017-09-03T13:04:24.773Z,3.07
2017-09-03T13:07:26.118Z,3.07
2017-09-03T13:10:27.436Z,3.07
2017-09-03T13:13:28.749Z,2.80
2017-09-03T13:16:30.052Z,3.10
2017-09-03T13:19:31.444Z,3.20
2017-09-03T13:22:32.797Z,3.03
2017-09-03T13:25:34.141Z,2.87
2017-09-03T13:28:35.588Z,4.60
2017-09-03T13:31:36.925Z,2.73
2017-09-03T13:34:38.247Z,2.93
2017-09-03T13:37:39.578Z,3.43
2017-09-03T13:40:40.934Z,3.30
2017-09-03T13:43:42.277Z,3.20
2017-09-03T13:46:43.614Z,3.37
2017-09-03T13:49:45.069Z,3.50
2017-09-03T13:52:46.373Z,4.37
2017-09-03T13:55:47.693Z,3.60
2017-09-03T13:58:48.977Z,4.37
2017-09-03T14:01:50.309Z,4.30
2017-09-03T14:04:51.645Z,3.67
2017-09-03T14:07:52.953Z,3.53
2017-09-03T14:10:54.385Z,3.70
2017-09-03T14:13:55.696Z,3.40
2017-09-03T14:16:57.035Z,3.07
2017-09-03T14:19:58.381Z,3.87
2017-09-03T14:22:59.735Z,3.83
2017-09-03T14:26:01.041Z,3.90
2017-09-03T14:29:02.357Z,3.10
2017-09-03T14:32:03.654Z,3.17
2017-09-03T14:35:04.996Z,3.07
2017-09-03T14:38:06.305Z,3.30
2017-09-03T14:41:07.622Z,3.37
2017-09-03T14:44:08.924Z,3.73
2017-09-03T14:47:10.268Z,3.70
2017-09-03T14:50:11.740Z,3.80
2017-09-03T14:53:13.049Z,3.20
2017-09-03T14:56:14.520Z,3.37
2017-09-03T14:59:15.828Z,4.80
2017-09-03T15:02:17.129Z,3.73
2017-09-03T15:05:18.421Z,4.70
2017-09-03T15:08:19.763Z,5.20
2017-09-03T15:11:21.060Z,5.23
2017-09-03T15:14:22.483Z,3.53
2017-09-03T15:17:23.893Z,4.13
2017-09-03T15:20:25.237Z,4.60
2017-09-03T15:23:26.640Z,5.03
2017-09-03T15:26:28.051Z,4.23
2017-09-03T15:29:29.597Z,3.60
2017-09-03T15:32:31.178Z,5.50
2017-09-03T15:35:32.611Z,5.60
2017-09-03T15:38:33.994Z,4.63
2017-09-03T15:41:35.309Z,4.07
2017-09-03T15:44:36.684Z,3.30
2017-09-03T15:47:38.029Z,3.03
2017-09-03T15:50:39.393Z,4.00
2017-09-03T15:53:40.768Z,4.60
2017-09-03T15:56:42.117Z,4.00
2017-09-03T15:59:43.497Z,4.37
2017-09-03T16:02:44.881Z,4.07
2017-09-03T16:05:46.248Z,3.23
2017-09-03T16:08:47.605Z,3.77
2017-09-03T16:11:48.921Z,3.30
2017-09-03T16:14:50.217Z,3.23
2017-09-03T16:17:51.557Z,3.80
2017-09-03T16:20:52.937Z,3.07
2017-09-03T16:23:54.264Z,3.20
2017-09-03T16:26:55.589Z,2.97
2017-09-03T16:29:56.912Z,3.00
2017-09-03T16:32:58.239Z,4.30
2017-09-03T16:35:59.594Z,3.47
2017-09-03T16:39:00.886Z,3.27
2017-09-03T16:42:02.224Z,3.10
2017-09-03T16:45:03.505Z,2.97
2017-09-03T16:48:04.847Z,2.60
2017-09-03T16:51:06.192Z,2.20
2017-09-03T16:54:07.556Z,3.40
2017-09-03T16:57:08.951Z,3.80
2017-09-03T17:00:10.305Z,3.87
2017-09-03T17:03:11.653Z,9.20
2017-09-03T17:06:12.986Z,8.70
2017-09-03T17:09:14.360Z,6.27
2017-09-03T17:12:15.748Z,2.93
2017-09-03T17:15:17.117Z,2.60
2017-09-03T17:18:18.493Z,3.47
2017-09-03T17:21:19.833Z,2.50
2017-09-03T17:24:21.198Z,3.53
2017-09-03T17:27:22.568Z,3.50
2017-09-03T17:30:23.956Z,3.73
2017-09-03T17:33:25.343Z,2.80
2017-09-03T17:36:30.541Z,3.07
2017-09-03T17:39:32.881Z,2.97
2017-09-03T17:42:34.213Z,3.17
2017-09-03T17:45:35.538Z,2.93
2017-09-03T17:48:36.926Z,2.50
2017-09-03T17:51:38.269Z,2.70
2017-09-03T17:54:39.666Z,3.03
2017-09-03T17:57:41.150Z,2.47
2017-09-03T18:00:42.533Z,2.63
2017-09-03T18:03:44.079Z,3.17
2017-09-03T18:06:45.432Z,3.27
2017-09-03T18:09:46.817Z,2.83
2017-09-03T18:12:48.153Z,2.70
2017-09-03T18:15:49.521Z,3.17
2017-09-03T18:18:50.885Z,3.10
2017-09-03T18:21:52.393Z,3.33
2017-09-03T18:24:53.759Z,3.67
2017-09-03T18:27:55.131Z,3.60
2017-09-03T18:30:57.446Z,3.10
2017-09-03T18:33:58.805Z,3.30
2017-09-03T18:37:16.111Z,2.90
2017-09-03T18:40:17.498Z,3.50
2017-09-03T18:43:20.834Z,3.00
2017-09-03T18:46:26.289Z,3.10
2017-09-03T18:49:30.716Z,3.30
2017-09-03T18:52:32.990Z,3.00
2017-09-03T18:55:36.271Z,3.50
2017-09-03T18:58:52.853Z,2.77
2017-09-03T19:01:54.205Z,3.77
2017-09-03T19:04:58.380Z,3.27
2017-09-03T19:07:59.766Z,3.10
2017-09-03T19:11:01.154Z,2.97
2017-09-03T19:14:02.558Z,3.70
2017-09-03T19:17:03.957Z,3.87
2017-09-03T19:20:05.433Z,3.03
2017-09-03T19:23:06.829Z,3.40
2017-09-03T19:26:08.615Z,3.30
2017-09-03T19:29:09.993Z,2.70
2017-09-03T19:32:11.386Z,3.47
2017-09-03T19:35:12.733Z,3.00
2017-09-03T19:38:14.146Z,2.93
2017-09-03T19:41:23.809Z,2.87
2017-09-03T19:44:25.131Z,3.50
2017-09-03T19:47:26.440Z,3.20
2017-09-03T19:50:27.800Z,3.50
2017-09-03T19:53:29.092Z,3.33
2017-09-03T19:56:30.456Z,3.40
2017-09-03T19:59:31.944Z,2.80
2017-09-03T20:02:33.284Z,3.70
2017-09-03T20:05:34.944Z,3.00
2017-09-03T20:08:36.265Z,2.57
2017-09-03T20:11:37.669Z,2.70
2017-09-03T20:14:38.988Z,3.17
2017-09-03T20:17:40.305Z,3.27
2017-09-03T20:20:41.622Z,2.80
2017-09-03T20:23:42.934Z,3.40
2017-09-03T20:26:44.283Z,3.57
2017-09-03T20:29:45.604Z,3.20
2017-09-03T20:32:47.294Z,3.30
2017-09-03T20:35:48.715Z,3.53
2017-09-03T20:38:50.094Z,3.40
2017-09-03T20:41:51.428Z,3.67
2017-09-03T20:44:52.767Z,3.57
2017-09-03T20:47:54.079Z,3.47
2017-09-03T20:50:55.409Z,3.67
2017-09-03T20:53:56.804Z,3.43
2017-09-03T20:56:58.153Z,3.57
2017-09-03T20:59:59.490Z,2.97
2017-09-03T21:03:00.845Z,3.43
2017-09-03T21:06:02.349Z,3.37
2017-09-03T21:09:03.751Z,3.30
2017-09-03T21:12:05.075Z,4.20
2017-09-03T21:15:06.404Z,2.87
2017-09-03T21:18:07.758Z,3.00
2017-09-03T21:21:09.108Z,3.63
2017-09-03T21:24:10.470Z,3.93
2017-09-03T21:27:11.781Z,3.50
2017-09-03T21:30:13.110Z,3.00
2017-09-03T21:33:14.604Z,3.13
2017-09-03T21:36:15.912Z,3.20
2017-09-03T21:39:17.221Z,2.83
2017-09-03T21:42:18.514Z,3.07
2017-09-03T21:45:19.900Z,3.70
2017-09-03T21:48:21.213Z,2.90
2017-09-03T21:51:22.537Z,2.83
2017-09-03T21:54:23.864Z,3.13
2017-09-03T21:57:25.205Z,2.60
2017-09-03T22:00:26.548Z,3.17
2017-09-03T22:03:27.869Z,2.77
2017-09-03T22:06:29.188Z,2.80
2017-09-03T22:09:30.541Z,2.67
2017-09-03T22:12:31.852Z,3.00
2017-09-03T22:15:33.196Z,2.60
2017-09-03T22:18:34.751Z,3.80
2017-09-03T22:21:36.104Z,2.50
2017-09-03T22:24:37.464Z,3.00
2017-09-03T22:27:38.784Z,2.60
2017-09-03T22:30:40.132Z,2.57
2017-09-03T22:33:41.409Z,3.10
2017-09-03T22:36:42.728Z,2.80
2017-09-03T22:39:44.089Z,2.53
2017-09-03T22:42:45.381Z,3.10
2017-09-03T22:45:46.977Z,3.20
2017-09-03T22:48:48.272Z,3.03
2017-09-03T22:51:49.612Z,3.30
2017-09-03T22:54:50.907Z,3.10
2017-09-03T22:57:52.233Z,2.90
2017-09-03T23:00:53.568Z,3.60
2017-09-03T23:03:54.885Z,2.90
2017-09-03T23:06:56.180Z,2.77
2017-09-03T23:09:57.514Z,2.30
2017-09-03T23:12:58.817Z,3.37
2017-09-03T23:16:00.145Z,2.90
2017-09-03T23:19:01.584Z,2.70
2017-09-03T23:22:02.925Z,3.30
2017-09-03T23:25:04.269Z,2.50
2017-09-03T23:28:05.592Z,3.00
2017-09-03T23:31:06.909Z,3.47
2017-09-03T23:34:08.233Z,3.50
2017-09-03T23:37:09.548Z,3.33
2017-09-03T23:40:11.020Z,2.70
2017-09-03T23:43:19.413Z,2.70
2017-09-03T23:46:20.941Z,2.97
2017-09-03T23:49:22.285Z,2.87
2017-09-03T23:52:23.641Z,3.10
2017-09-03T23:55:24.942Z,3.47
2017-09-03T23:58:26.276Z,3.07
